Georg Stage — OYKL — position and weather

sailwx.info

Track history (hours):
 
Tides and Currents Weather Stations Pressure Air Temp Water Temp Dewpoint Dewpoint Depression Visibility Wind Speed Wind Dir Waves Ship Positions

Georg Stage (Denmark)

Ship's website: http://www.georgstage.dk

Last reported at 2020-Aug-02 12:50 UTC. Time now 2020-Aug-07 09:26 UTC.
Position N 58°18' E 003°49'.

Length 54 m; draft 4.2 m.

Type: Sailing vessel. MMSI: 219417000.

Date/timePositionNaut miles runAvg speedWind from/ knotsBaromVisibWave heightAir tempDewpointWater temp
2020-Aug-02 12:50N 58°18' E 003°49'1 1.2
2020-Aug-02 12:12N 58°19' E 003°49'4 2.1
2020-Aug-02 10:23N 58°22' E 003°53'1 2.4
2020-Aug-02 09:56N 58°23' E 003°54'9 2.7
2020-Aug-02 06:29N 58°31' E 004°04'5 3.4
2020-Aug-02 05:00N 58°34' E 004°11'2 4.0
2020-Aug-02 04:30N 58°36' E 004°14'2 4.3
2020-Aug-02 04:00N 58°37' E 004°16'4 4.3
2020-Aug-02 03:01N 58°41' E 004°22'4 4.3
2020-Aug-02 02:00N 58°44' E 004°28'5 5.4
2020-Aug-02 01:00N 58°48' E 004°35'2 0.9
2020-Aug-01 22:30N 58°49' E 004°38'38 5.9
2020-Aug-01 16:00N 58°20' E 005°25'17 8.5
2020-Aug-01 14:00N 58°08' E 005°49'20 7.8
2020-Aug-01 11:31N 57°56' E 006°18'18 9.0
2020-Aug-01 09:31N 57°44' E 006°44'20 5.0
2020-Aug-01 05:30N 57°36' E 007°18'11 4.6
2020-Aug-01 03:00N 57°36' E 007°39'3 5.4
2020-Aug-01 02:30N 57°37' E 007°44'14 6.9
2020-Aug-01 00:30N 57°38' E 008°10'3 6.7
2020-Jul-31 23:59N 57°38' E 008°16'16 6.6
2020-Jul-31 21:30N 57°40' E 008°47'22 6.3
2020-Jul-31 18:00N 57°42' E 009°28'18 7.3
2020-Jul-31 15:30N 57°46' E 010°01'12 3.4
2020-Jul-31 12:01N 57°50' E 010°22'4 1.8
2020-Jul-31 10:00N 57°51' E 010°29'13 3.8
2020-Jul-31 06:31N 57°42' E 010°48'2 4.1
2020-Jul-31 06:00N 57°40' E 010°48'4 4.3
2020-Jul-31 04:59N 57°36' E 010°48'5 4.5
2020-Jul-31 03:55N 57°31' E 010°47'  
2020-Jul-28 06:24N 55°56' E 011°52'0 0.0
2020-Jul-27 14:08N 55°56' E 011°52'1 0.6
2020-Jul-27 12:00N 55°55' E 011°51'3 1.8
2020-Jul-27 10:00N 55°53' E 011°46'0 0.6
2020-Jul-27 09:30N 55°53' E 011°46'1 0.6
2020-Jul-27 08:00N 55°53' E 011°45'1 0.8
2020-Jul-27 06:26N 55°53' E 011°43'0 0.0
2020-Jul-27 05:29N 55°53' E 011°43'0 0.0
2020-Jul-27 04:29N 55°53' E 011°43'0 0.0
2020-Jul-27 03:29N 55°53' E 011°43'0 0.0
2020-Jul-27 02:59N 55°53' E 011°43'0 0.0
2020-Jul-27 02:29N 55°53' E 011°43'0 0.0
2020-Jul-27 01:59N 55°53' E 011°43'0 0.0
2020-Jul-27 00:59N 55°53' E 011°43'0 0.0
2020-Jul-26 20:29N 55°53' E 011°43'0 0.0
2020-Jul-26 17:59N 55°53' E 011°43'0 0.0
2020-Jul-26 17:29N 55°53' E 011°43'0 0.0
2020-Jul-26 15:56N 55°53' E 011°43'0 0.0
2020-Jul-26 15:29N 55°53' E 011°43'2 0.5
2020-Jul-26 12:00N 55°52' E 011°46'1 1.3
2020-Jul-26 11:31N 55°53' E 011°47'2 0.7
2020-Jul-26 09:00N 55°52' E 011°50'2 1.5
2020-Jul-26 07:30N 55°52' E 011°46'1 0.2
2020-Jul-26 01:55N 55°51' E 011°43'1 0.1
2020-Jul-25 09:59N 55°53' E 011°43'0 0.0
2020-Jul-25 07:29N 55°53' E 011°43'0 0.0
2020-Jul-25 05:59N 55°53' E 011°43'0 0.0
2020-Jul-25 05:14N 55°53' E 011°43'0 0.0
2020-Jul-25 04:29N 55°53' E 011°43'0 0.0
2020-Jul-25 03:56N 55°53' E 011°43'0 0.0
2020-Jul-25 01:59N 55°53' E 011°43'1 0.2
2020-Jul-24 20:30N 55°53' E 011°45'31 3.8
2020-Jul-24 12:30N 56°06' E 012°34'13 6.6
2020-Jul-24 10:30N 55°53' E 012°39'10 6.9
2020-Jul-24 09:00N 55°43' E 012°38'2 1.6
2020-Jul-24 07:47N 55°41' E 012°36'0 0.0
2020-Jul-24 07:26N 55°41' E 012°36'0 0.0
2020-Jul-24 06:13N 55°41' E 012°36'0 0.0
2020-Jul-24 05:58N 55°41' E 012°36'0 0.0
2020-Jul-24 05:19N 55°41' E 012°36'0 0.0
2020-Jul-24 04:19N 55°41' E 012°36'0 0.0
2020-Jul-24 02:58N 55°41' E 012°36'0 0.0
2020-Jul-23 19:55N 55°41' E 012°36'0 0.0
2020-Jul-23 15:10N 55°41' E 012°36'0 0.0
2020-Jul-23 13:25N 55°41' E 012°36'  
Track history (hours):
 
Tides and Currents Weather Stations Pressure Air Temp Water Temp Dewpoint Dewpoint Depression Visibility Wind Speed Wind Dir Waves Ship Positions

Georg Stage (Denmark)

Ship's website: http://www.georgstage.dk

Last reported at 2020-Aug-02 12:50 UTC. Time now 2020-Aug-07 09:26 UTC.
Position N 58°18' E 003°49'.

Length 54 m; draft 4.2 m.

Type: Sailing vessel. MMSI: 219417000.

Date/timePositionNaut miles runAvg speedWind from/ knotsBaromVisibWave heightAir tempDewpointWater temp
2020-Aug-02 12:50N 58°18' E 003°49'1 1.2
2020-Aug-02 12:12N 58°19' E 003°49'4 2.1
2020-Aug-02 10:23N 58°22' E 003°53'1 2.4
2020-Aug-02 09:56N 58°23' E 003°54'9 2.7
2020-Aug-02 06:29N 58°31' E 004°04'5 3.4
2020-Aug-02 05:00N 58°34' E 004°11'2 4.0
2020-Aug-02 04:30N 58°36' E 004°14'2 4.3
2020-Aug-02 04:00N 58°37' E 004°16'4 4.3
2020-Aug-02 03:01N 58°41' E 004°22'4 4.3
2020-Aug-02 02:00N 58°44' E 004°28'5 5.4
2020-Aug-02 01:00N 58°48' E 004°35'2 0.9
2020-Aug-01 22:30N 58°49' E 004°38'38 5.9
2020-Aug-01 16:00N 58°20' E 005°25'17 8.5
2020-Aug-01 14:00N 58°08' E 005°49'20 7.8
2020-Aug-01 11:31N 57°56' E 006°18'18 9.0
2020-Aug-01 09:31N 57°44' E 006°44'20 5.0
2020-Aug-01 05:30N 57°36' E 007°18'11 4.6
2020-Aug-01 03:00N 57°36' E 007°39'3 5.4
2020-Aug-01 02:30N 57°37' E 007°44'14 6.9
2020-Aug-01 00:30N 57°38' E 008°10'3 6.7
2020-Jul-31 23:59N 57°38' E 008°16'16 6.6
2020-Jul-31 21:30N 57°40' E 008°47'22 6.3
2020-Jul-31 18:00N 57°42' E 009°28'18 7.3
2020-Jul-31 15:30N 57°46' E 010°01'12 3.4
2020-Jul-31 12:01N 57°50' E 010°22'4 1.8
2020-Jul-31 10:00N 57°51' E 010°29'13 3.8
2020-Jul-31 06:31N 57°42' E 010°48'2 4.1
2020-Jul-31 06:00N 57°40' E 010°48'4 4.3
2020-Jul-31 04:59N 57°36' E 010°48'5 4.5
2020-Jul-31 03:55N 57°31' E 010°47'  
2020-Jul-28 06:24N 55°56' E 011°52'0 0.0
2020-Jul-27 14:08N 55°56' E 011°52'1 0.6
2020-Jul-27 12:00N 55°55' E 011°51'3 1.8
2020-Jul-27 10:00N 55°53' E 011°46'0 0.6
2020-Jul-27 09:30N 55°53' E 011°46'1 0.6
2020-Jul-27 08:00N 55°53' E 011°45'1 0.8
2020-Jul-27 06:26N 55°53' E 011°43'0 0.0
2020-Jul-27 05:29N 55°53' E 011°43'0 0.0
2020-Jul-27 04:29N 55°53' E 011°43'0 0.0
2020-Jul-27 03:29N 55°53' E 011°43'0 0.0
2020-Jul-27 02:59N 55°53' E 011°43'0 0.0
2020-Jul-27 02:29N 55°53' E 011°43'0 0.0
2020-Jul-27 01:59N 55°53' E 011°43'0 0.0
2020-Jul-27 00:59N 55°53' E 011°43'0 0.0
2020-Jul-26 20:29N 55°53' E 011°43'0 0.0
2020-Jul-26 17:59N 55°53' E 011°43'0 0.0
2020-Jul-26 17:29N 55°53' E 011°43'0 0.0
2020-Jul-26 15:56N 55°53' E 011°43'0 0.0
2020-Jul-26 15:29N 55°53' E 011°43'2 0.5
2020-Jul-26 12:00N 55°52' E 011°46'1 1.3
2020-Jul-26 11:31N 55°53' E 011°47'2 0.7
2020-Jul-26 09:00N 55°52' E 011°50'2 1.5
2020-Jul-26 07:30N 55°52' E 011°46'1 0.2
2020-Jul-26 01:55N 55°51' E 011°43'1 0.1
2020-Jul-25 09:59N 55°53' E 011°43'0 0.0
2020-Jul-25 07:29N 55°53' E 011°43'0 0.0
2020-Jul-25 05:59N 55°53' E 011°43'0 0.0
2020-Jul-25 05:14N 55°53' E 011°43'0 0.0
2020-Jul-25 04:29N 55°53' E 011°43'0 0.0
2020-Jul-25 03:56N 55°53' E 011°43'0 0.0
2020-Jul-25 01:59N 55°53' E 011°43'1 0.2
2020-Jul-24 20:30N 55°53' E 011°45'31 3.8
2020-Jul-24 12:30N 56°06' E 012°34'13 6.6
2020-Jul-24 10:30N 55°53' E 012°39'10 6.9
2020-Jul-24 09:00N 55°43' E 012°38'2 1.6
2020-Jul-24 07:47N 55°41' E 012°36'0 0.0
2020-Jul-24 07:26N 55°41' E 012°36'0 0.0
2020-Jul-24 06:13N 55°41' E 012°36'0 0.0
2020-Jul-24 05:58N 55°41' E 012°36'0 0.0
2020-Jul-24 05:19N 55°41' E 012°36'0 0.0
2020-Jul-24 04:19N 55°41' E 012°36'0 0.0
2020-Jul-24 02:58N 55°41' E 012°36'0 0.0
2020-Jul-23 19:55N 55°41' E 012°36'0 0.0
2020-Jul-23 15:10N 55°41' E 012°36'0 0.0
2020-Jul-23 13:25N 55°41' E 012°36'  

Dump ship's entire track history